createdAt,value
2023-01-04T00:00:49.411Z,12.27
2023-01-04T00:05:50.906Z,11.05
2023-01-04T00:10:52.425Z,9.85
2023-01-04T00:15:53.977Z,9.85
2023-01-04T00:20:55.513Z,9.32
2023-01-04T00:25:56.953Z,8.82
2023-01-04T00:31:02.689Z,8.48
2023-01-04T00:36:13.829Z,8.07
2023-01-04T00:41:34.741Z,9.25
2023-01-04T00:46:37.699Z,7.95
2023-01-04T00:51:41.210Z,8.00
2023-01-04T00:56:43.568Z,9.25
2023-01-04T01:01:45.447Z,7.35
2023-01-04T01:06:47.841Z,7.30
2023-01-04T01:11:50.020Z,6.43
2023-01-04T01:16:57.703Z,6.80
2023-01-04T01:22:00.136Z,6.00
2023-01-04T01:27:01.600Z,5.28
2023-01-04T01:32:03.361Z,4.88
2023-01-04T01:37:04.988Z,4.30
2023-01-04T01:42:06.504Z,3.38
2023-01-04T01:47:22.135Z,3.60
2023-01-04T01:52:31.594Z,3.67
2023-01-04T01:57:37.851Z,3.33
2023-01-04T02:02:47.393Z,2.45
2023-01-04T02:07:50.596Z,3.28
2023-01-04T02:12:52.857Z,2.15
2023-01-04T02:18:10.114Z,2.05
2023-01-04T02:23:34.374Z,2.15
2023-01-04T02:34:08.528Z,1.88
2023-01-04T02:39:22.080Z,2.33
2023-01-04T02:44:55.872Z,1.93
2023-01-04T02:50:15.963Z,1.88
2023-01-04T02:55:17.539Z,1.85
2023-01-04T03:00:26.787Z,1.63
2023-01-04T03:06:14.763Z,2.35
2023-01-04T03:11:36.711Z,1.50
2023-01-04T03:16:40.775Z,1.88
2023-01-04T03:21:45.109Z,1.50
2023-01-04T03:27:08.296Z,1.70
2023-01-04T03:32:37.049Z,1.80
2023-01-04T03:37:47.716Z,2.05
2023-01-04T03:43:19.520Z,1.92
2023-01-04T03:48:34.482Z,2.20
2023-01-04T03:53:44.184Z,2.10
2023-01-04T03:58:46.406Z,2.20
2023-01-04T04:04:06.392Z,2.03
2023-01-04T04:09:07.988Z,2.20
2023-01-04T04:14:09.452Z,2.92
2023-01-04T04:19:11.020Z,2.22
2023-01-04T04:24:22.149Z,2.50
2023-01-04T04:29:24.584Z,2.97
2023-01-04T04:34:26.111Z,3.03
2023-01-04T04:39:27.634Z,3.72
2023-01-04T04:44:29.109Z,2.90
2023-01-04T04:49:30.579Z,3.10
2023-01-04T04:54:32.017Z,2.83
2023-01-04T04:59:33.665Z,3.03
2023-01-04T05:04:35.077Z,3.17
2023-01-04T05:09:36.561Z,3.30
2023-01-04T05:14:38.114Z,2.90
2023-01-04T05:19:39.614Z,2.60
2023-01-04T05:24:41.121Z,2.50
2023-01-04T05:30:01.022Z,2.85
2023-01-04T05:35:02.620Z,2.80
2023-01-04T05:40:04.459Z,2.45
2023-01-04T05:45:06.883Z,2.55
2023-01-04T05:50:10.047Z,2.25
2023-01-04T05:55:11.910Z,1.80
2023-01-04T06:00:14.636Z,2.35
2023-01-04T06:05:16.471Z,2.10
2023-01-04T06:10:18.783Z,2.00
2023-01-04T06:15:20.263Z,1.73
2023-01-04T06:20:21.839Z,1.73
2023-01-04T06:25:23.314Z,1.85
2023-01-04T06:30:24.833Z,2.30
2023-01-04T06:35:26.410Z,1.75
2023-01-04T06:40:28.630Z,1.08
2023-01-04T06:45:30.079Z,2.67
2023-01-04T06:50:31.590Z,2.50
2023-01-04T06:55:33.107Z,2.47
2023-01-04T07:00:34.580Z,2.08
2023-01-04T07:05:36.129Z,1.80
2023-01-04T07:10:37.695Z,2.08
2023-01-04T07:15:40.841Z,1.30
2023-01-04T07:20:43.616Z,1.50
2023-01-04T07:25:45.111Z,1.80
2023-01-04T07:30:46.652Z,2.15
2023-01-04T07:35:48.130Z,3.13
2023-01-04T07:40:55.918Z,4.00
2023-01-04T07:45:58.252Z,4.53
2023-01-04T07:50:59.737Z,4.45
2023-01-04T07:56:01.352Z,4.85
2023-01-04T08:01:08.115Z,4.35
2023-01-04T08:06:11.994Z,3.47
2023-01-04T08:11:17.118Z,3.00
2023-01-04T08:16:40.565Z,2.03
2023-01-04T08:21:43.040Z,1.60
2023-01-04T08:26:45.750Z,1.20
2023-01-04T08:31:47.287Z,0.88
2023-01-04T08:36:50.735Z,1.27
2023-01-04T08:41:59.335Z,0.70
2023-01-04T08:47:04.460Z,0.93
2023-01-04T08:52:06.120Z,0.60
2023-01-04T08:57:07.602Z,0.68
2023-01-04T09:02:22.443Z,0.68
2023-01-04T09:07:24.013Z,0.50
2023-01-04T09:12:25.515Z,0.60
2023-01-04T09:17:27.049Z,0.70
2023-01-04T09:22:30.799Z,0.77
2023-01-04T09:27:32.785Z,0.40
2023-01-04T09:32:34.276Z,0.68
2023-01-04T09:37:35.719Z,0.80
2023-01-04T09:42:44.057Z,0.93
2023-01-04T09:47:55.787Z,0.55
2023-01-04T09:53:12.434Z,0.40
2023-01-04T09:58:35.513Z,0.30
2023-01-04T10:03:39.495Z,0.38
2023-01-04T10:08:44.337Z,0.22
2023-01-04T10:14:01.357Z,0.20
2023-01-04T10:21:08.541Z,0.32
2023-01-04T10:24:58.309Z,0.20
2023-01-04T10:30:16.453Z,0.17
2023-01-04T10:35:24.112Z,0.17
2023-01-04T10:40:27.967Z,0.30
2023-01-04T10:45:43.789Z,0.20
2023-01-04T10:50:56.440Z,0.50
2023-01-04T10:56:26.245Z,0.30
2023-01-04T11:01:36.116Z,0.20
2023-01-04T11:06:48.429Z,0.30
2023-01-04T11:11:51.231Z,0.30
2023-01-04T11:16:59.612Z,0.17
2023-01-04T11:22:28.042Z,0.43
2023-01-04T11:27:35.888Z,0.40
2023-01-04T11:33:03.081Z,0.60
2023-01-04T11:38:27.862Z,0.25
2023-01-04T11:43:39.029Z,0.30
2023-01-04T11:48:46.171Z,0.10
2023-01-04T11:53:57.437Z,0.28
2023-01-04T11:59:04.127Z,0.60
2023-01-04T12:04:23.235Z,0.30
2023-01-04T12:09:24.893Z,0.45
2023-01-04T12:14:29.270Z,0.68
2023-01-04T12:19:31.382Z,1.75
2023-01-04T12:24:34.479Z,2.92
2023-01-04T12:29:44.631Z,3.78
2023-01-04T12:34:49.010Z,3.78
2023-01-04T12:39:50.541Z,2.92
2023-01-04T12:44:52.262Z,3.30
2023-01-04T12:49:56.670Z,4.18
2023-01-04T12:55:00.629Z,3.80
2023-01-04T13:00:07.065Z,3.80
2023-01-04T13:10:43.623Z,3.92
2023-01-04T13:16:16.666Z,5.30
2023-01-04T13:21:27.804Z,3.70
2023-01-04T13:26:48.795Z,3.80
2023-01-04T13:31:59.725Z,5.15
2023-01-04T13:37:17.211Z,4.88
2023-01-04T13:42:26.824Z,4.68
2023-01-04T13:47:33.670Z,4.90
2023-01-04T13:52:50.900Z,5.43
2023-01-04T13:58:01.865Z,4.05
2023-01-04T14:03:21.477Z,5.13
2023-01-04T14:09:01.722Z,4.93
2023-01-04T14:14:05.070Z,5.65
2023-01-04T14:19:27.692Z,7.50
2023-01-04T14:29:54.315Z,5.22
2023-01-04T14:34:55.882Z,6.07
2023-01-04T14:39:58.138Z,4.30
2023-01-04T14:44:59.778Z,4.38
2023-01-04T14:50:01.283Z,5.53
2023-01-04T14:55:04.894Z,4.63
2023-01-04T15:00:07.048Z,4.23
2023-01-04T15:05:09.032Z,4.00
2023-01-04T15:10:28.008Z,7.18
2023-01-04T15:15:30.202Z,6.07
2023-01-04T15:20:31.870Z,5.65
2023-01-04T15:25:33.419Z,6.35
2023-01-04T15:30:35.300Z,5.57
2023-01-04T15:35:36.742Z,7.20
2023-01-04T15:40:38.935Z,6.22
2023-01-04T15:45:40.376Z,7.35
2023-01-04T15:50:41.879Z,6.22
2023-01-04T15:55:43.418Z,6.18
2023-01-04T16:00:45.769Z,6.28
2023-01-04T16:05:49.711Z,6.00
2023-01-04T16:10:51.200Z,6.68
2023-01-04T16:15:52.760Z,6.47
2023-01-04T16:20:54.281Z,5.63
2023-01-04T16:26:10.033Z,6.03
2023-01-04T16:31:11.563Z,6.65
2023-01-04T16:36:14.811Z,5.82
2023-01-04T16:41:18.567Z,6.05
2023-01-04T16:46:28.800Z,6.60
2023-01-04T16:51:32.650Z,5.18
2023-01-04T16:56:34.235Z,6.50
2023-01-04T17:01:40.920Z,6.07
2023-01-04T17:06:49.941Z,6.45
2023-01-04T17:17:18.739Z,6.38
2023-01-04T17:22:20.353Z,6.57
2023-01-04T17:27:21.807Z,6.78
2023-01-04T17:32:23.325Z,7.63
2023-01-04T17:37:25.281Z,6.38
2023-01-04T17:42:26.787Z,6.97
2023-01-04T17:47:29.255Z,6.38
2023-01-04T17:52:31.685Z,6.85
2023-01-04T17:57:34.989Z,7.47
2023-01-04T18:02:36.473Z,7.00
2023-01-04T18:07:37.944Z,7.80
2023-01-04T18:12:39.438Z,7.82
2023-01-04T18:17:41.017Z,6.13
2023-01-04T18:22:42.448Z,7.60
2023-01-04T18:27:43.942Z,8.52
2023-01-04T18:32:45.479Z,6.63
2023-01-04T18:37:47.007Z,6.60
2023-01-04T18:42:49.416Z,8.02
2023-01-04T18:47:52.092Z,6.80
2023-01-04T18:52:53.800Z,7.15
2023-01-04T18:57:55.286Z,6.10
2023-01-04T19:02:57.535Z,5.15
2023-01-04T19:07:59.008Z,5.45
2023-01-04T19:13:00.515Z,5.75
2023-01-04T19:18:01.967Z,7.03
2023-01-04T19:23:03.452Z,6.90
2023-01-04T19:28:05.395Z,6.55
2023-01-04T19:33:07.212Z,5.97
2023-01-04T19:38:09.082Z,6.65
2023-01-04T19:43:10.694Z,5.95
2023-01-04T19:48:12.183Z,6.93
2023-01-04T19:53:13.934Z,6.20
2023-01-04T19:58:15.822Z,6.07
2023-01-04T20:03:17.432Z,5.50
2023-01-04T20:08:19.371Z,6.57
2023-01-04T20:13:20.890Z,6.95
2023-01-04T20:18:25.747Z,7.47
2023-01-04T20:23:27.331Z,7.50
2023-01-04T20:28:28.827Z,7.63
2023-01-04T20:33:31.370Z,7.88
2023-01-04T20:38:39.847Z,6.82
2023-01-04T20:43:42.624Z,7.30
2023-01-04T20:48:44.828Z,6.68
2023-01-04T20:53:46.726Z,7.65
2023-01-04T20:58:49.295Z,7.22
2023-01-04T21:03:50.899Z,7.30
2023-01-04T21:08:54.747Z,7.82
2023-01-04T21:13:56.551Z,7.53
2023-01-04T21:18:58.626Z,7.80
2023-01-04T21:24:00.085Z,6.60
2023-01-04T21:29:01.576Z,6.90
2023-01-04T21:34:07.920Z,5.80
2023-01-04T21:39:12.904Z,4.75
2023-01-04T21:44:14.455Z,6.25
2023-01-04T21:49:15.975Z,8.07
2023-01-04T21:54:17.393Z,6.95
2023-01-04T21:59:18.819Z,6.20
2023-01-04T22:04:20.275Z,8.25
2023-01-04T22:09:21.785Z,5.60
2023-01-04T22:14:23.200Z,4.50
2023-01-04T22:19:24.655Z,6.20
2023-01-04T22:24:26.145Z,5.65
2023-01-04T22:29:27.638Z,7.35
2023-01-04T22:34:29.156Z,4.85
2023-01-04T22:39:30.631Z,6.20
2023-01-04T22:44:32.081Z,6.38
2023-01-04T22:49:33.538Z,5.95
2023-01-04T22:54:35.587Z,5.60
2023-01-04T22:59:37.058Z,6.60
2023-01-04T23:04:38.621Z,5.80
2023-01-04T23:09:40.276Z,3.33
2023-01-04T23:14:41.775Z,5.72
2023-01-04T23:19:43.298Z,6.07
2023-01-04T23:24:44.776Z,3.88
2023-01-04T23:29:46.472Z,3.20
2023-01-04T23:34:50.945Z,4.32
2023-01-04T23:39:52.389Z,2.95
2023-01-04T23:44:53.865Z,2.85
2023-01-04T23:49:55.402Z,3.47
2023-01-04T23:54:56.813Z,2.95
2023-01-04T23:59:58.286Z,2.63
